sensor_id;sensor_type;location;lat;lon;timestamp;P1;durP1;ratioP1;P2;durP2;ratioP2
74939;SDS011;63505;45.226;37.908;2022-09-13T13:33:55;57.30;;;27.13;;
74939;SDS011;63505;45.226;37.908;2022-09-13T13:36:26;47.05;;;23.73;;
74939;SDS011;63505;45.226;37.908;2022-09-13T13:38:58;47.72;;;21.33;;
74939;SDS011;63505;45.226;37.908;2022-09-13T13:43:58;18.15;;;8.27;;
74939;SDS011;63505;45.226;37.908;2022-09-13T13:46:29;13.25;;;7.18;;
74939;SDS011;63505;45.226;37.908;2022-09-13T13:57:25;6.80;;;3.60;;
74939;SDS011;63505;45.226;37.908;2022-09-13T14:00:15;5.75;;;3.05;;
74939;SDS011;63505;45.226;37.908;2022-09-13T14:05:19;5.60;;;2.83;;
74939;SDS011;63505;45.226;37.908;2022-09-13T14:13:40;10.13;;;3.20;;
74939;SDS011;63505;45.226;37.908;2022-09-13T14:16:14;5.32;;;2.85;;
74939;SDS011;63505;45.226;37.908;2022-09-13T14:21:43;4.75;;;3.00;;
74939;SDS011;63505;45.226;37.908;2022-09-13T14:24:20;6.82;;;3.10;;
74939;SDS011;63505;45.226;37.908;2022-09-13T14:26:58;6.03;;;2.95;;
74939;SDS011;63505;45.226;37.908;2022-09-13T14:29:25;13.45;;;7.55;;
74939;SDS011;63505;45.226;37.908;2022-09-13T14:31:53;9.27;;;5.18;;
74939;SDS011;63505;45.226;37.908;2022-09-13T14:34:34;19.30;;;9.95;;
74939;SDS011;63505;45.226;37.908;2022-09-13T14:37:14;107.18;;;66.10;;
74939;SDS011;63505;45.226;37.908;2022-09-13T14:39:55;48.53;;;25.13;;
74939;SDS011;63505;45.226;37.908;2022-09-13T14:45:32;66.72;;;28.90;;
74939;SDS011;63505;45.226;37.908;2022-09-13T14:50:56;59.88;;;26.52;;
74939;SDS011;63505;45.226;37.908;2022-09-13T14:53:28;62.05;;;26.83;;
74939;SDS011;63505;45.226;37.908;2022-09-13T14:55:59;59.08;;;26.15;;
74939;SDS011;63505;45.226;37.908;2022-09-13T14:58:43;43.22;;;21.88;;
74939;SDS011;63505;45.226;37.908;2022-09-13T15:01:13;49.63;;;22.42;;
74939;SDS011;63505;45.226;37.908;2022-09-13T15:03:45;38.13;;;15.90;;
74939;SDS011;63505;45.226;37.908;2022-09-13T15:06:23;43.67;;;19.40;;
74939;SDS011;63505;45.226;37.908;2022-09-13T15:11:37;41.63;;;15.45;;
74939;SDS011;63505;45.226;37.908;2022-09-13T15:14:23;33.75;;;14.90;;
74939;SDS011;63505;45.226;37.908;2022-09-13T15:22:17;22.83;;;9.95;;
74939;SDS011;63505;45.226;37.908;2022-09-13T15:27:43;20.65;;;9.07;;
74939;SDS011;63505;45.226;37.908;2022-09-13T15:30:22;14.48;;;7.85;;
74939;SDS011;63505;45.226;37.908;2022-09-13T15:32:49;18.25;;;7.60;;
74939;SDS011;63505;45.226;37.908;2022-09-13T15:35:51;12.93;;;6.25;;
74939;SDS011;63505;45.226;37.908;2022-09-13T15:38:58;30.73;;;10.70;;
74939;SDS011;63505;45.226;37.908;2022-09-13T15:41:49;21.90;;;8.98;;
74939;SDS011;63505;45.226;37.908;2022-09-13T15:47:00;23.67;;;8.57;;
74939;SDS011;63505;45.226;37.908;2022-09-13T15:52:43;21.63;;;8.88;;
74939;SDS011;63505;45.226;37.908;2022-09-13T15:55:10;19.60;;;8.48;;
74939;SDS011;63505;45.226;37.908;2022-09-13T15:57:37;22.98;;;8.30;;
74939;SDS011;63505;45.226;37.908;2022-09-13T16:00:03;20.30;;;7.85;;
74939;SDS011;63505;45.226;37.908;2022-09-13T16:02:35;17.80;;;7.45;;
74939;SDS011;63505;45.226;37.908;2022-09-13T16:05:02;21.92;;;7.00;;
74939;SDS011;63505;45.226;37.908;2022-09-13T16:07:28;12.98;;;5.55;;
74939;SDS011;63505;45.226;37.908;2022-09-13T16:09:54;13.45;;;5.15;;
74939;SDS011;63505;45.226;37.908;2022-09-13T16:12:20;13.48;;;5.03;;
74939;SDS011;63505;45.226;37.908;2022-09-13T16:14:48;10.63;;;4.70;;
74939;SDS011;63505;45.226;37.908;2022-09-13T16:17:19;12.48;;;5.68;;
74939;SDS011;63505;45.226;37.908;2022-09-13T16:19:46;12.25;;;5.03;;
74939;SDS011;63505;45.226;37.908;2022-09-13T16:22:12;10.35;;;4.10;;
74939;SDS011;63505;45.226;37.908;2022-09-13T16:24:39;10.75;;;4.15;;
74939;SDS011;63505;45.226;37.908;2022-09-13T16:27:05;8.15;;;4.38;;
74939;SDS011;63505;45.226;37.908;2022-09-13T16:29:31;8.63;;;4.25;;
74939;SDS011;63505;45.226;37.908;2022-09-13T16:31:58;8.27;;;3.50;;
74939;SDS011;63505;45.226;37.908;2022-09-13T16:34:26;5.95;;;3.17;;
74939;SDS011;63505;45.226;37.908;2022-09-13T16:36:55;7.50;;;2.90;;
74939;SDS011;63505;45.226;37.908;2022-09-13T16:39:21;10.15;;;3.92;;
74939;SDS011;63505;45.226;37.908;2022-09-13T16:41:48;6.03;;;3.15;;
74939;SDS011;63505;45.226;37.908;2022-09-13T16:44:15;7.78;;;3.45;;
74939;SDS011;63505;45.226;37.908;2022-09-13T16:46:42;8.27;;;3.15;;
74939;SDS011;63505;45.226;37.908;2022-09-13T16:49:09;6.57;;;2.97;;
74939;SDS011;63505;45.226;37.908;2022-09-13T16:51:37;6.65;;;2.70;;
74939;SDS011;63505;45.226;37.908;2022-09-13T16:54:03;5.93;;;3.15;;
74939;SDS011;63505;45.226;37.908;2022-09-13T17:02:45;8.15;;;2.72;;
74939;SDS011;63505;45.226;37.908;2022-09-13T17:05:12;5.45;;;2.38;;
74939;SDS011;63505;45.226;37.908;2022-09-13T17:07:39;5.13;;;2.40;;
74939;SDS011;63505;45.226;37.908;2022-09-13T17:10:06;7.22;;;2.80;;
74939;SDS011;63505;45.226;37.908;2022-09-13T17:12:33;3.72;;;2.60;;
74939;SDS011;63505;45.226;37.908;2022-09-13T17:15:00;4.03;;;2.45;;
74939;SDS011;63505;45.226;37.908;2022-09-13T17:17:26;7.65;;;2.40;;
74939;SDS011;63505;45.226;37.908;2022-09-13T17:19:58;4.03;;;2.40;;
74939;SDS011;63505;45.226;37.908;2022-09-13T17:22:26;5.53;;;2.42;;
74939;SDS011;63505;45.226;37.908;2022-09-13T17:24:56;6.53;;;2.97;;
74939;SDS011;63505;45.226;37.908;2022-09-13T17:27:23;8.00;;;2.33;;
74939;SDS011;63505;45.226;37.908;2022-09-13T17:29:49;5.18;;;2.50;;
74939;SDS011;63505;45.226;37.908;2022-09-13T17:32:16;5.78;;;2.60;;
74939;SDS011;63505;45.226;37.908;2022-09-13T17:34:52;5.38;;;2.50;;
74939;SDS011;63505;45.226;37.908;2022-09-13T17:37:19;5.00;;;2.80;;
74939;SDS011;63505;45.226;37.908;2022-09-13T17:39:45;6.28;;;2.63;;
74939;SDS011;63505;45.226;37.908;2022-09-13T17:42:12;5.57;;;2.40;;
74939;SDS011;63505;45.226;37.908;2022-09-13T17:44:42;4.43;;;2.30;;
74939;SDS011;63505;45.226;37.908;2022-09-13T17:47:09;4.30;;;2.28;;
74939;SDS011;63505;45.226;37.908;2022-09-13T17:49:35;7.40;;;2.35;;
74939;SDS011;63505;45.226;37.908;2022-09-13T17:52:02;6.00;;;2.55;;
74939;SDS011;63505;45.226;37.908;2022-09-13T17:54:28;4.53;;;2.40;;
74939;SDS011;63505;45.226;37.908;2022-09-13T17:56:58;3.88;;;2.35;;
74939;SDS011;63505;45.226;37.908;2022-09-13T18:02:13;5.03;;;2.60;;
74939;SDS011;63505;45.226;37.908;2022-09-13T18:04:43;5.28;;;2.47;;
74939;SDS011;63505;45.226;37.908;2022-09-13T18:07:10;4.40;;;2.50;;
74939;SDS011;63505;45.226;37.908;2022-09-13T18:09:37;4.32;;;2.28;;
74939;SDS011;63505;45.226;37.908;2022-09-13T18:12:05;5.20;;;2.63;;
74939;SDS011;63505;45.226;37.908;2022-09-13T18:14:31;3.78;;;2.22;;
74939;SDS011;63505;45.226;37.908;2022-09-13T18:16:58;6.82;;;2.53;;
74939;SDS011;63505;45.226;37.908;2022-09-13T18:19:24;6.13;;;2.28;;
74939;SDS011;63505;45.226;37.908;2022-09-13T18:21:52;3.95;;;2.40;;
74939;SDS011;63505;45.226;37.908;2022-09-13T18:24:19;7.07;;;2.53;;
74939;SDS011;63505;45.226;37.908;2022-09-13T18:26:45;8.45;;;2.90;;
74939;SDS011;63505;45.226;37.908;2022-09-13T18:29:12;5.43;;;2.70;;
74939;SDS011;63505;45.226;37.908;2022-09-13T18:31:39;6.63;;;3.35;;
74939;SDS011;63505;45.226;37.908;2022-09-13T18:34:08;7.85;;;3.58;;
74939;SDS011;63505;45.226;37.908;2022-09-13T18:36:36;8.25;;;3.38;;
74939;SDS011;63505;45.226;37.908;2022-09-13T18:39:04;5.93;;;2.83;;
74939;SDS011;63505;45.226;37.908;2022-09-13T18:41:33;6.43;;;3.67;;
74939;SDS011;63505;45.226;37.908;2022-09-13T18:44:01;6.03;;;2.40;;
74939;SDS011;63505;45.226;37.908;2022-09-13T18:46:30;5.20;;;2.72;;
74939;SDS011;63505;45.226;37.908;2022-09-13T18:48:57;7.25;;;2.72;;
74939;SDS011;63505;45.226;37.908;2022-09-13T18:51:27;4.80;;;2.72;;
74939;SDS011;63505;45.226;37.908;2022-09-13T18:53:56;5.25;;;2.53;;
74939;SDS011;63505;45.226;37.908;2022-09-13T18:56:24;4.95;;;3.03;;
74939;SDS011;63505;45.226;37.908;2022-09-13T18:58:51;5.10;;;2.90;;
74939;SDS011;63505;45.226;37.908;2022-09-13T19:01:20;4.88;;;2.85;;
74939;SDS011;63505;45.226;37.908;2022-09-13T19:03:55;4.93;;;3.20;;
74939;SDS011;63505;45.226;37.908;2022-09-13T19:06:27;4.78;;;2.60;;
74939;SDS011;63505;45.226;37.908;2022-09-13T19:08:56;5.45;;;3.00;;
74939;SDS011;63505;45.226;37.908;2022-09-13T19:11:25;4.50;;;2.60;;
74939;SDS011;63505;45.226;37.908;2022-09-13T19:13:56;6.90;;;3.15;;
74939;SDS011;63505;45.226;37.908;2022-09-13T19:16:22;6.80;;;2.95;;
74939;SDS011;63505;45.226;37.908;2022-09-13T19:18:50;5.28;;;3.42;;
74939;SDS011;63505;45.226;37.908;2022-09-13T19:21:19;6.13;;;2.83;;
74939;SDS011;63505;45.226;37.908;2022-09-13T19:23:48;5.53;;;3.15;;
74939;SDS011;63505;45.226;37.908;2022-09-13T19:26:20;5.50;;;2.80;;
74939;SDS011;63505;45.226;37.908;2022-09-13T19:31:24;5.95;;;3.05;;
74939;SDS011;63505;45.226;37.908;2022-09-13T19:36:20;5.20;;;2.75;;
74939;SDS011;63505;45.226;37.908;2022-09-13T19:38:49;7.75;;;3.42;;
74939;SDS011;63505;45.226;37.908;2022-09-13T19:41:17;7.45;;;3.58;;
74939;SDS011;63505;45.226;37.908;2022-09-13T19:43:45;7.60;;;4.15;;
74939;SDS011;63505;45.226;37.908;2022-09-13T19:46:14;7.18;;;3.53;;
74939;SDS011;63505;45.226;37.908;2022-09-13T19:48:46;6.13;;;3.03;;
74939;SDS011;63505;45.226;37.908;2022-09-13T19:51:14;5.80;;;3.15;;
74939;SDS011;63505;45.226;37.908;2022-09-13T19:53:42;7.82;;;3.60;;
74939;SDS011;63505;45.226;37.908;2022-09-13T19:56:12;6.60;;;3.58;;
74939;SDS011;63505;45.226;37.908;2022-09-13T19:58:43;6.45;;;3.15;;
74939;SDS011;63505;45.226;37.908;2022-09-13T20:01:17;4.60;;;2.72;;
74939;SDS011;63505;45.226;37.908;2022-09-13T20:03:53;7.35;;;3.15;;
74939;SDS011;63505;45.226;37.908;2022-09-13T20:06:21;6.78;;;2.95;;
74939;SDS011;63505;45.226;37.908;2022-09-13T20:08:50;5.20;;;3.20;;
74939;SDS011;63505;45.226;37.908;2022-09-13T20:11:17;6.25;;;3.03;;
74939;SDS011;63505;45.226;37.908;2022-09-13T20:13:44;5.25;;;3.00;;
74939;SDS011;63505;45.226;37.908;2022-09-13T20:16:19;5.35;;;2.95;;
74939;SDS011;63505;45.226;37.908;2022-09-13T20:18:48;5.13;;;2.45;;
74939;SDS011;63505;45.226;37.908;2022-09-13T20:21:16;5.57;;;3.05;;
74939;SDS011;63505;45.226;37.908;2022-09-13T20:23:43;5.57;;;2.88;;
74939;SDS011;63505;45.226;37.908;2022-09-13T20:26:20;5.88;;;2.95;;
74939;SDS011;63505;45.226;37.908;2022-09-13T20:28:55;8.40;;;3.17;;
74939;SDS011;63505;45.226;37.908;2022-09-13T20:31:27;5.57;;;2.97;;
74939;SDS011;63505;45.226;37.908;2022-09-13T20:33:55;5.38;;;2.75;;
74939;SDS011;63505;45.226;37.908;2022-09-13T20:36:23;3.47;;;2.28;;
74939;SDS011;63505;45.226;37.908;2022-09-13T20:38:51;5.47;;;2.55;;
74939;SDS011;63505;45.226;37.908;2022-09-13T20:41:19;4.40;;;2.45;;
74939;SDS011;63505;45.226;37.908;2022-09-13T20:43:46;5.68;;;2.53;;
74939;SDS011;63505;45.226;37.908;2022-09-13T20:46:16;4.43;;;2.80;;
74939;SDS011;63505;45.226;37.908;2022-09-13T20:48:44;3.78;;;2.30;;
74939;SDS011;63505;45.226;37.908;2022-09-13T20:51:12;4.78;;;2.47;;
74939;SDS011;63505;45.226;37.908;2022-09-13T20:53:39;3.58;;;1.90;;
74939;SDS011;63505;45.226;37.908;2022-09-13T20:56:09;4.93;;;2.60;;
74939;SDS011;63505;45.226;37.908;2022-09-13T20:58:38;6.30;;;2.40;;
74939;SDS011;63505;45.226;37.908;2022-09-13T21:01:06;5.20;;;3.03;;
74939;SDS011;63505;45.226;37.908;2022-09-13T21:03:38;4.38;;;2.75;;
74939;SDS011;63505;45.226;37.908;2022-09-13T21:06:07;4.32;;;2.65;;
74939;SDS011;63505;45.226;37.908;2022-09-13T21:08:34;5.43;;;2.63;;
74939;SDS011;63505;45.226;37.908;2022-09-13T21:13:53;5.15;;;3.00;;
74939;SDS011;63505;45.226;37.908;2022-09-13T21:16:26;5.75;;;3.03;;
74939;SDS011;63505;45.226;37.908;2022-09-13T21:18:54;4.82;;;3.00;;
74939;SDS011;63505;45.226;37.908;2022-09-13T21:21:22;4.90;;;2.92;;
74939;SDS011;63505;45.226;37.908;2022-09-13T21:23:51;5.28;;;3.00;;
74939;SDS011;63505;45.226;37.908;2022-09-13T21:26:20;6.80;;;3.83;;
74939;SDS011;63505;45.226;37.908;2022-09-13T21:28:47;5.10;;;2.70;;
74939;SDS011;63505;45.226;37.908;2022-09-13T21:31:18;6.75;;;3.58;;
74939;SDS011;63505;45.226;37.908;2022-09-13T21:33:47;5.90;;;3.65;;
74939;SDS011;63505;45.226;37.908;2022-09-13T21:36:17;4.93;;;3.35;;
74939;SDS011;63505;45.226;37.908;2022-09-13T21:38:44;5.22;;;3.30;;
74939;SDS011;63505;45.226;37.908;2022-09-13T21:41:14;5.50;;;3.25;;
74939;SDS011;63505;45.226;37.908;2022-09-13T21:43:41;5.65;;;3.00;;
74939;SDS011;63505;45.226;37.908;2022-09-13T21:46:15;4.47;;;3.13;;
74939;SDS011;63505;45.226;37.908;2022-09-13T21:48:44;7.57;;;3.78;;
74939;SDS011;63505;45.226;37.908;2022-09-13T21:51:15;6.20;;;3.25;;
74939;SDS011;63505;45.226;37.908;2022-09-13T21:53:44;6.45;;;4.05;;
74939;SDS011;63505;45.226;37.908;2022-09-13T21:56:13;7.00;;;3.50;;
74939;SDS011;63505;45.226;37.908;2022-09-13T21:59:02;6.65;;;3.95;;
74939;SDS011;63505;45.226;37.908;2022-09-13T22:01:34;6.75;;;3.25;;
74939;SDS011;63505;45.226;37.908;2022-09-13T22:04:06;6.03;;;3.72;;
74939;SDS011;63505;45.226;37.908;2022-09-13T22:06:35;8.52;;;3.65;;
74939;SDS011;63505;45.226;37.908;2022-09-13T22:09:04;5.35;;;3.65;;
74939;SDS011;63505;45.226;37.908;2022-09-13T22:11:33;6.85;;;3.58;;
74939;SDS011;63505;45.226;37.908;2022-09-13T22:14:03;6.85;;;3.22;;
74939;SDS011;63505;45.226;37.908;2022-09-13T22:16:32;10.30;;;4.38;;
74939;SDS011;63505;45.226;37.908;2022-09-13T22:19:01;7.00;;;3.58;;
74939;SDS011;63505;45.226;37.908;2022-09-13T22:21:32;8.32;;;3.17;;
74939;SDS011;63505;45.226;37.908;2022-09-13T22:24:01;8.30;;;3.72;;
74939;SDS011;63505;45.226;37.908;2022-09-13T22:26:31;7.75;;;3.10;;
74939;SDS011;63505;45.226;37.908;2022-09-13T22:28:58;4.13;;;2.80;;
74939;SDS011;63505;45.226;37.908;2022-09-13T22:31:26;5.70;;;2.70;;
74939;SDS011;63505;45.226;37.908;2022-09-13T22:33:56;7.15;;;2.50;;
74939;SDS011;63505;45.226;37.908;2022-09-13T22:36:24;8.95;;;2.92;;
74939;SDS011;63505;45.226;37.908;2022-09-13T22:38:51;4.85;;;2.40;;
74939;SDS011;63505;45.226;37.908;2022-09-13T22:41:19;7.13;;;2.90;;
74939;SDS011;63505;45.226;37.908;2022-09-13T22:43:50;6.07;;;2.47;;
74939;SDS011;63505;45.226;37.908;2022-09-13T22:46:18;5.40;;;2.97;;
74939;SDS011;63505;45.226;37.908;2022-09-13T22:48:49;5.00;;;2.63;;
74939;SDS011;63505;45.226;37.908;2022-09-13T22:51:17;6.55;;;2.58;;
74939;SDS011;63505;45.226;37.908;2022-09-13T22:53:47;4.72;;;2.50;;
74939;SDS011;63505;45.226;37.908;2022-09-13T23:01:10;3.50;;;2.10;;
74939;SDS011;63505;45.226;37.908;2022-09-13T23:03:39;5.05;;;2.60;;
74939;SDS011;63505;45.226;37.908;2022-09-13T23:06:06;4.80;;;2.25;;
74939;SDS011;63505;45.226;37.908;2022-09-13T23:08:33;4.60;;;2.63;;
74939;SDS011;63505;45.226;37.908;2022-09-13T23:11:10;4.90;;;2.78;;
74939;SDS011;63505;45.226;37.908;2022-09-13T23:13:38;4.07;;;2.33;;
74939;SDS011;63505;45.226;37.908;2022-09-13T23:16:06;3.50;;;2.00;;
74939;SDS011;63505;45.226;37.908;2022-09-13T23:18:34;4.38;;;2.38;;
74939;SDS011;63505;45.226;37.908;2022-09-13T23:21:01;3.22;;;2.03;;
74939;SDS011;63505;45.226;37.908;2022-09-13T23:23:27;3.90;;;2.28;;
74939;SDS011;63505;45.226;37.908;2022-09-13T23:25:54;5.38;;;2.45;;
74939;SDS011;63505;45.226;37.908;2022-09-13T23:28:26;5.10;;;2.67;;
74939;SDS011;63505;45.226;37.908;2022-09-13T23:30:53;5.25;;;1.90;;
74939;SDS011;63505;45.226;37.908;2022-09-13T23:33:20;3.47;;;2.08;;
74939;SDS011;63505;45.226;37.908;2022-09-13T23:35:46;4.47;;;2.30;;
74939;SDS011;63505;45.226;37.908;2022-09-13T23:38:13;3.45;;;1.77;;
74939;SDS011;63505;45.226;37.908;2022-09-13T23:40:39;6.88;;;2.70;;
74939;SDS011;63505;45.226;37.908;2022-09-13T23:43:05;4.57;;;2.20;;
74939;SDS011;63505;45.226;37.908;2022-09-13T23:45:32;4.13;;;2.15;;
74939;SDS011;63505;45.226;37.908;2022-09-13T23:47:58;5.75;;;2.53;;
74939;SDS011;63505;45.226;37.908;2022-09-13T23:50:24;5.20;;;2.05;;
74939;SDS011;63505;45.226;37.908;2022-09-13T23:52:51;3.92;;;2.63;;
74939;SDS011;63505;45.226;37.908;2022-09-13T23:55:17;4.47;;;2.75;;
74939;SDS011;63505;45.226;37.908;2022-09-13T23:57:44;3.45;;;2.13;;
